Canfield, Ohio
Current Conditions -  °F | °C
As of 6:51 PM on Monday 22 Dec 2014 (Local Time) from KYNG Reporting Station
Broken Clouds Broken Clouds  
Wind Chill: 28°   Ceiling: 22000
Heat Index: 36°   Visibility: 10mi
Dew Point: 28°   Wind: 13mph
Humidity: 73%   Direction: 100°E
Pressure: 29.95"   Gusts: NA
Location:  41.02°N, 80.76°W
Report Text: KYNG 222351Z 10011KT 10SM SCT170 BKN220 02/M02 A2995 RMK AO2 SLP156 T00221022 10044 20017 58013
Loading
Personal Weather Stations






























Interactive Weather Map New forecast layout! Learn more

10-Day Weather Forecast

Advertisements
Track Severe Weather on mobile